Detalii statie CEREAMIN SMEENI [00001CFD]

Toti senzorii

Date Temperatura solului [C]Precipitatii [mm]Voltaj baterie [mV]Leaf Wetness [Min]HC Air temperature [C]HC Relative humidity [%]Punctul de roua [C]
medieminmaxsumaultimatimpmedieminmaxmediemediemin
2019-06-15 17:00:00 29.2 28.9 29.5 0 7254 30.44 27.52 32.45 41.84 15.7 14.1
2019-06-15 18:00:00 28.3 27.9 28.9 0 7284 22.79 21.47 26.66 81.5 19.1 15
2019-06-15 19:00:00 27.4 26.4 28.2 0 7186 20.55 18.88 23.78 89.75 18.5 17.6
2019-06-15 20:00:00 26.8 26.5 27.1 0.2 7088 19.64 19.19 20.08 100 19.5 19.1
2019-06-15 21:00:00 26.3 26.1 26.6 0.2 7020 19.93 19.3 20.44 100 19.8 19.3
2019-06-15 22:00:00 26 25.8 26.2 0.2 6952 19.32 19.18 19.7 100 19.2 19.1
2019-06-15 23:00:00 25.6 25.4 26 0.2 6904 19.55 19.31 19.77 100 19.5 19.3
2019-06-16 00:00:00 25.3 25 25.5 0.2 6874 19.03 18.59 19.31 100 18.9 18.5
2019-06-16 01:00:00 24.9 24.7 25.2 0.2 6874 18.39 18.14 18.69 100 18.3 18.1
2019-06-16 02:00:00 24.6 24.5 24.9 0.2 6884 18.41 18.31 18.61 100 18.3 18.3
2019-06-16 03:00:00 24.3 24.2 24.5 0.2 6874 17.6 16.82 18.28 100 17.5 16.8
2019-06-16 04:00:00 24 24 24.2 0.4 6874 17.06 16.58 17.41 100 17 16.5
2019-06-16 05:00:00 23.7 23.5 23.9 0 6864 17.07 16.84 17.29 100 17 16.8
2019-06-16 06:00:00 23.5 23.4 23.6 0.4 6894 17.79 17.09 18.81 100 17.7 17
2019-06-16 07:00:00 23.3 23.3 23.4 0.4 6982 20.45 19.05 22.48 98.81 20.1 19
2019-06-16 08:00:00 23.3 23.2 23.4 0.8 7118 23.74 22.44 25.07 80.52 20 19.6
2019-06-16 09:00:00 23.5 23.4 23.7 0.8 7284 27.83 25.39 29.16 63.65 20.1 19.5
2019-06-16 10:00:00 24 23.6 24.6 1.6 7284 30.02 29.36 31.12 57.22 20.4 19.6
2019-06-16 11:00:00 25 24.5 25.5 0.8 7274 31.43 30.7 32.27 51.62 19.9 19.2
2019-06-16 12:00:00 26.1 25.6 26.7 0.4 7274 32.71 32.12 33.29 46.04 19.3 18.8
2019-06-16 13:00:00 27.2 26.9 27.9 0.4 7274 33.44 32.25 34.22 42.82 18.8 17.2
2019-06-16 14:00:00 28.2 27.8 28.7 0.2 7274 34.23 33.63 35 36.75 17 15.7
2019-06-16 15:00:00 29 28.6 29.4 0 7264 34.26 33.8 34.74 31.9 14.7 12.7
2019-06-16 16:00:00 29.5 29.4 29.7 0 7264 34.45 33.93 35.18 31.26 14.7 13.5
2019-06-16 17:00:00 29.6 29.5 29.8 0 7186 32.28 31.26 34.17 37.88 15.7 14.3
2019-06-16 18:00:00 29.1 28.9 29.5 0.2 7216 30.84 27.03 31.53 45.05 17.2 16.1
2019-06-16 19:00:00 28.5 28.2 28.8 0 7206 25.75 25.25 26.29 57.21 16.4 15.3
2019-06-16 20:00:00 28 27.8 28.3 0 7166 25.33 24.84 25.45 65.73 18.2 17.7
2019-06-16 21:00:00 27.5 27.4 27.8 0 7070 23.33 22.71 24.33 75.77 18.6 18.3
2019-06-16 22:00:00 27.1 27 27.3 0 7000 22.67 21.57 23.38 73.96 17.6 17.1
2019-06-16 23:00:00 26.6 26.5 26.9 0 6932 21.51 20.49 22.28 79.59 17.6 16.8
2019-06-17 00:00:00 26.2 26 26.6 0 6884 19.92 19.33 20.68 97.42 19.4 19
2019-06-17 01:00:00 25.8 25.4 26 0 6864 19.55 19.27 19.92 100 19.5 19.2
2019-06-17 02:00:00 25.4 25.3 25.6 0 6874 19.71 19.27 20.13 100 19.6 19.2
2019-06-17 03:00:00 25 24.9 25.4 0 6874 18.73 18.33 19.12 100 18.7 18.3
2019-06-17 04:00:00 24.8 24.6 25 0 6874 18.51 18.13 18.82 100 18.4 18.1
2019-06-17 05:00:00 24.4 24.3 24.7 0 6854 18.38 18.17 18.58 100 18.3 18.1
2019-06-17 06:00:00 24.2 24.1 24.4 0 6884 19.8 18.68 21.34 98.98 19.5 18.6
2019-06-17 07:00:00 24 24 24.2 0 6962 23.07 21.64 25.28 82.36 19.7 19.3
2019-06-17 08:00:00 24 24 24.2 0 7070 26.58 25.34 27.46 65.23 19.3 18.5
2019-06-17 09:00:00 24.1 24 24.4 0 7284 29.34 27.84 30.12 51.99 18.2 17.7
2019-06-17 10:00:00 24.7 24.4 25.2 0 7274 30.83 30.13 31.63 48.45 18.4 17.9
2019-06-17 11:00:00 25.5 25.2 26.1 0 7274 32.49 31.03 33.3 44.57 18.6 18
2019-06-17 12:00:00 26.5 26.1 27 0 7274 33.64 33.01 34.19 40.38 18 17.5
2019-06-17 13:00:00 27.6 27.1 28.1 0 7274 34.4 33.9 34.94 38.92 18.2 17.2
2019-06-17 14:00:00 28.5 28.2 29.2 0 7274 34.56 34.31 34.91 38.74 18.2 17.3
2019-06-17 15:00:00 29.4 28.9 29.8 0 7274 34.14 33.21 34.79 39.83 18.3 17.8
2019-06-17 16:00:00 29.7 29.5 29.9 0 7264 33.54 32.96 34.06 41.42 18.3 17.9